Decoded Metar for OMAA (ABU DHABI in UNITED ARAB EMIRATES) (IATA:AUH) | Meteo·Mobile Aviation Weather
aviador You're here:

OMAA Decoded Metar

ABU DHABI in UNITED ARAB EMIRATES
Report Time2018-10-23 23:00:00
UTC Time2018-10-23 23:23:07
Flight Rules vfr VFR
Wind300° at 06 kt
W.Decomp.*RWY 31: 5.9 kt HW 1.1 kt LCW
W.Rank300° ranks 2
Current wind is below 300° avg. (9.9)
Visibility9999 m
Phenomena:N/A
Clouds:N/A
Expected CloudBase > 2,800 ft AGL from Temp-Dew spread
CeilingNone
Temp30°C (ISA +15)
Dew Point23°C (66% RH)
Heat Index34.1°C
QNH1012 hPa
Density Alt2,231 ft
Elevation89 ft
Report Wrong Elevation
Raw Report
METAR OMAA 232300Z 30006KT CAVOK 30/23 Q1012 NOSIG=

Extra information for OMAA:More info

Metar Taf Metar & Taf Last 4 Metars F.Rules Stats Wind Profile Meteogram Temp Stats Airport Information Weather charts Add Link Nearby VenuesMetar ALERT Operation Metar Decoded Social comments